Time,TemperatureF,DewpointF,PressureIn,WindDirection,WindDirectionDegrees,WindSpeedMPH,WindSpeedGustMPH,Humidity,HourlyPrecipIn,Conditions,Clouds,dailyrainin,SoftwareType,DateUTC
2013-09-14 00:14:00,53.7,48.0,29.69,NE,50,0.0,-999.0,81,-99.99,,,0.00,weatherlink.com 1.10,2013-09-14 07:14:00,
2013-09-14 00:29:00,53.4,48.0,29.69,NE,50,0.0,-999.0,82,-99.99,,,0.00,weatherlink.com 1.10,2013-09-14 07:29:00,
2013-09-14 00:44:00,53.0,48.0,29.69,NE,50,0.0,-999.0,82,-99.99,,,0.00,weatherlink.com 1.10,2013-09-14 07:44:00,
2013-09-14 00:59:00,52.5,48.0,29.69,NE,50,0.0,-999.0,83,-99.99,,,0.00,weatherlink.com 1.10,2013-09-14 07:59:00,
2013-09-14 01:14:00,52.4,47.0,29.69,NE,50,0.0,-999.0,82,-99.99,,,0.00,weatherlink.com 1.10,2013-09-14 08:14:00,
2013-09-14 01:29:00,52.5,47.0,29.69,NE,50,0.0,-999.0,82,-99.99,,,0.00,weatherlink.com 1.10,2013-09-14 08:29:00,
2013-09-14 01:44:00,52.3,47.0,29.69,NE,50,0.0,-999.0,83,-99.99,,,0.00,weatherlink.com 1.10,2013-09-14 08:44:00,
2013-09-14 01:59:00,52.1,47.0,29.70,NE,50,1.0,-999.0,84,-99.99,,,0.00,weatherlink.com 1.10,2013-09-14 08:59:00,
2013-09-14 02:14:00,51.7,47.0,29.70,NE,50,0.0,-999.0,84,-99.99,,,0.00,weatherlink.com 1.10,2013-09-14 09:14:00,
2013-09-14 02:29:00,51.2,47.0,29.70,NE,50,0.0,-999.0,85,-99.99,,,0.00,weatherlink.com 1.10,2013-09-14 09:29:00,
2013-09-14 02:44:00,50.8,47.0,29.70,NE,50,0.0,-999.0,86,-99.99,,,0.00,weatherlink.com 1.10,2013-09-14 09:44:00,
2013-09-14 02:59:00,50.5,47.0,29.70,NE,50,0.0,-999.0,87,-99.99,,,0.00,weatherlink.com 1.10,2013-09-14 09:59:00,
2013-09-14 03:14:00,50.3,47.0,29.70,NE,50,0.0,-999.0,87,-99.99,,,0.00,weatherlink.com 1.10,2013-09-14 10:14:00,
2013-09-14 03:29:00,50.3,47.0,29.70,NE,50,0.0,-999.0,87,-99.99,,,0.00,weatherlink.com 1.10,2013-09-14 10:29:00,
2013-09-14 03:44:00,50.0,46.0,29.70,NE,50,0.0,-999.0,87,-99.99,,,0.00,weatherlink.com 1.10,2013-09-14 10:44:00,
2013-09-14 03:59:00,49.9,46.0,29.70,NE,50,0.0,-999.0,87,-99.99,,,0.00,weatherlink.com 1.10,2013-09-14 10:59:00,
2013-09-14 04:14:00,49.9,47.0,29.69,NE,50,0.0,-999.0,88,-99.99,,,0.00,weatherlink.com 1.10,2013-09-14 11:14:00,
2013-09-14 04:29:00,49.9,47.0,29.70,NE,50,0.0,-999.0,88,-99.99,,,0.00,weatherlink.com 1.10,2013-09-14 11:29:00,
2013-09-14 04:44:00,50.0,47.0,29.70,NE,50,0.0,-999.0,88,-99.99,,,0.00,weatherlink.com 1.10,2013-09-14 11:44:00,
2013-09-14 04:59:00,50.0,47.0,29.70,NE,50,0.0,-999.0,88,-99.99,,,0.00,weatherlink.com 1.10,2013-09-14 11:59:00,
2013-09-14 05:14:00,50.1,47.0,29.70,NE,50,0.0,-999.0,88,-99.99,,,0.00,weatherlink.com 1.10,2013-09-14 12:14:00,
2013-09-14 05:29:00,50.0,47.0,29.71,NE,50,0.0,-999.0,88,-99.99,,,0.00,weatherlink.com 1.10,2013-09-14 12:29:00,
2013-09-14 05:44:00,49.9,47.0,29.70,NE,50,0.0,-999.0,88,-99.99,,,0.00,weatherlink.com 1.10,2013-09-14 12:44:00,
2013-09-14 05:59:00,49.8,47.0,29.71,NE,50,0.0,-999.0,89,-99.99,,,0.00,weatherlink.com 1.10,2013-09-14 12:59:00,
2013-09-14 06:14:00,49.9,47.0,29.71,NE,50,0.0,-999.0,89,-99.99,,,0.00,weatherlink.com 1.10,2013-09-14 13:14:00,
2013-09-14 06:29:00,50.0,47.0,29.71,NE,50,0.0,-999.0,89,-99.99,,,0.00,weatherlink.com 1.10,2013-09-14 13:29:00,
2013-09-14 06:44:00,50.1,47.0,29.71,NE,50,0.0,-999.0,89,-99.99,,,0.00,weatherlink.com 1.10,2013-09-14 13:44:00,
2013-09-14 06:59:00,50.6,48.0,29.72,NE,50,0.0,-999.0,89,-99.99,,,0.00,weatherlink.com 1.10,2013-09-14 13:59:00,
2013-09-14 07:14:00,52.6,49.0,29.72,NE,50,0.0,-999.0,87,-99.99,,,0.00,weatherlink.com 1.10,2013-09-14 14:14:00,
2013-09-14 07:29:00,54.6,50.0,29.72,NE,50,0.0,-999.0,85,-99.99,,,0.00,weatherlink.com 1.10,2013-09-14 14:29:00,
2013-09-14 07:44:00,56.9,52.0,29.72,NE,50,0.0,-999.0,83,-99.99,,,0.00,weatherlink.com 1.10,2013-09-14 14:44:00,
2013-09-14 07:59:00,59.1,53.0,29.71,NE,50,0.0,-999.0,80,-99.99,,,0.00,weatherlink.com 1.10,2013-09-14 14:59:00,
2013-09-14 08:14:00,60.8,54.0,29.71,NE,50,0.0,-999.0,78,-99.99,,,0.00,weatherlink.com 1.10,2013-09-14 15:14:00,
2013-09-14 08:30:00,63.2,55.0,29.71,NE,50,0.0,-999.0,74,-99.99,,,0.00,weatherlink.com 1.10,2013-09-14 15:30:00,
2013-09-14 08:45:00,64.3,55.0,29.71,ESE,107,0.0,-999.0,71,-99.99,,,0.00,weatherlink.com 1.10,2013-09-14 15:45:00,
2013-09-14 09:00:00,64.8,55.0,29.72,SW,236,0.0,-999.0,71,-99.99,,,0.00,weatherlink.com 1.10,2013-09-14 16:00:00,
2013-09-14 09:15:00,65.8,56.0,29.72,SE,136,0.0,-999.0,70,-99.99,,,0.00,weatherlink.com 1.10,2013-09-14 16:15:00,
2013-09-14 09:30:00,66.5,55.0,29.73,WSW,258,0.0,-999.0,67,-99.99,,,0.00,weatherlink.com 1.10,2013-09-14 16:30:00,
2013-09-14 09:45:00,66.8,56.0,29.73,SW,225,0.0,-999.0,68,-99.99,,,0.00,weatherlink.com 1.10,2013-09-14 16:45:00,
2013-09-14 10:00:00,67.7,55.0,29.72,South,169,2.0,-999.0,64,-99.99,,,0.00,weatherlink.com 1.10,2013-09-14 17:00:00,
2013-09-14 10:15:00,68.3,56.0,29.72,NNW,331,0.0,-999.0,65,-99.99,,,0.00,weatherlink.com 1.10,2013-09-14 17:15:00,
2013-09-14 10:30:00,68.7,55.0,29.72,WSW,239,1.0,-999.0,62,-99.99,,,0.00,weatherlink.com 1.10,2013-09-14 17:30:00,
2013-09-14 10:45:00,69.2,54.0,29.72,WSW,239,1.0,-999.0,58,-99.99,,,0.00,weatherlink.com 1.10,2013-09-14 17:45:00,
2013-09-14 11:00:00,69.6,54.0,29.72,SSW,210,1.0,-999.0,58,-99.99,,,0.00,weatherlink.com 1.10,2013-09-14 18:00:00,
2013-09-14 11:15:00,70.8,53.0,29.72,WNW,293,0.0,-999.0,54,-99.99,,,0.00,weatherlink.com 1.10,2013-09-14 18:15:00,
2013-09-14 11:30:00,71.1,51.0,29.71,SW,220,4.0,-999.0,49,-99.99,,,0.00,weatherlink.com 1.10,2013-09-14 18:30:00,
2013-09-14 11:45:00,71.7,52.0,29.71,West,259,1.0,-999.0,51,-99.99,,,0.00,weatherlink.com 1.10,2013-09-14 18:45:00,
2013-09-14 12:00:00,72.4,51.0,29.71,SW,231,4.0,-999.0,47,-99.99,,,0.00,weatherlink.com 1.10,2013-09-14 19:00:00,
2013-09-14 12:15:00,72.2,51.0,29.71,SW,221,2.0,-999.0,48,-99.99,,,0.00,weatherlink.com 1.10,2013-09-14 19:15:00,
2013-09-14 12:30:00,73.0,52.0,29.70,SSW,196,4.0,-999.0,48,-99.99,,,0.00,weatherlink.com 1.10,2013-09-14 19:30:00,
2013-09-14 12:45:00,73.5,51.0,29.70,West,260,1.0,-999.0,45,-99.99,,,0.00,weatherlink.com 1.10,2013-09-14 19:45:00,
2013-09-14 13:00:00,73.0,51.0,29.70,SW,225,1.0,-999.0,46,-99.99,,,0.00,weatherlink.com 1.10,2013-09-14 20:00:00,
2013-09-14 13:15:00,73.7,52.0,29.69,SW,223,2.0,-999.0,47,-99.99,,,0.00,weatherlink.com 1.10,2013-09-14 20:15:00,
2013-09-14 13:30:00,74.3,52.0,29.68,WSW,256,1.0,-999.0,45,-99.99,,,0.00,weatherlink.com 1.10,2013-09-14 20:30:00,
2013-09-14 13:45:00,74.9,50.0,29.68,SSW,192,1.0,-999.0,42,-99.99,,,0.00,weatherlink.com 1.10,2013-09-14 20:45:00,
2013-09-14 14:00:00,75.1,50.0,29.68,SSE,162,3.0,-999.0,41,-99.99,,,0.00,weatherlink.com 1.10,2013-09-14 21:00:00,
2013-09-14 14:15:00,75.7,51.0,29.67,SSW,206,4.0,-999.0,42,-99.99,,,0.00,weatherlink.com 1.10,2013-09-14 21:15:00,
2013-09-14 14:30:00,76.2,49.0,29.66,SW,217,2.0,-999.0,39,-99.99,,,0.00,weatherlink.com 1.10,2013-09-14 21:30:00,
2013-09-14 14:45:00,76.1,49.0,29.66,SW,227,2.0,-999.0,39,-99.99,,,0.00,weatherlink.com 1.10,2013-09-14 21:45:00,
2013-09-14 15:00:00,76.2,49.0,29.66,South,182,0.0,-999.0,39,-99.99,,,0.00,weatherlink.com 1.10,2013-09-14 22:00:00,
2013-09-14 15:16:00,76.9,49.0,29.65,SSW,199,3.0,-999.0,38,-99.99,,,0.00,weatherlink.com 1.10,2013-09-14 22:16:00,
2013-09-14 15:31:00,75.8,48.0,29.65,South,174,1.0,-999.0,37,-99.99,,,0.00,weatherlink.com 1.10,2013-09-14 22:31:00,
2013-09-14 15:46:00,76.0,49.0,29.65,WSW,254,3.0,-999.0,38,-99.99,,,0.00,weatherlink.com 1.10,2013-09-14 22:46:00,
2013-09-14 16:01:00,75.3,48.0,29.65,SE,130,2.0,-999.0,38,-99.99,,,0.00,weatherlink.com 1.10,2013-09-14 23:01:00,
2013-09-14 16:16:00,74.9,47.0,29.65,SSW,202,0.0,-999.0,37,-99.99,,,0.00,weatherlink.com 1.10,2013-09-14 23:16:00,
2013-09-14 16:31:00,74.5,47.0,29.65,West,259,1.0,-999.0,38,-99.99,,,0.00,weatherlink.com 1.10,2013-09-14 23:31:00,
2013-09-14 16:46:00,74.1,48.0,29.65,South,188,1.0,-999.0,40,-99.99,,,0.00,weatherlink.com 1.10,2013-09-14 23:46:00,
2013-09-14 17:01:00,74.3,47.0,29.66,SW,225,3.0,-999.0,38,-99.99,,,0.00,weatherlink.com 1.10,2013-09-15 00:01:00,
2013-09-14 17:16:00,73.0,47.0,29.66,SW,225,0.0,-999.0,40,-99.99,,,0.00,weatherlink.com 1.10,2013-09-15 00:16:00,
2013-09-14 17:31:00,70.5,49.0,29.67,NNE,26,2.0,-999.0,46,-99.99,,,0.00,weatherlink.com 1.10,2013-09-15 00:31:00,
2013-09-14 17:46:00,67.4,49.0,29.68,North,360,0.0,-999.0,52,-99.99,,,0.00,weatherlink.com 1.10,2013-09-15 00:46:00,
2013-09-14 18:01:00,57.5,47.0,29.73,North,355,4.0,-999.0,69,-99.99,,,0.46,weatherlink.com 1.10,2013-09-15 01:01:00,
2013-09-14 18:16:00,50.7,48.0,29.74,NW,324,0.0,-999.0,89,-99.99,,,0.84,weatherlink.com 1.10,2013-09-15 01:16:00,
2013-09-14 18:31:00,52.0,50.0,29.73,NW,324,0.0,-999.0,92,-99.99,,,0.92,weatherlink.com 1.10,2013-09-15 01:31:00,
2013-09-14 18:46:00,53.3,51.0,29.72,NW,324,0.0,-999.0,93,-99.99,,,0.95,weatherlink.com 1.10,2013-09-15 01:46:00,
2013-09-14 19:01:00,54.1,52.0,29.72,North,5,1.0,-999.0,93,-99.99,,,0.96,weatherlink.com 1.10,2013-09-15 02:01:00,
2013-09-14 19:16:00,54.3,52.0,29.71,NE,49,0.0,-999.0,92,-99.99,,,0.97,weatherlink.com 1.10,2013-09-15 02:16:00,
2013-09-14 19:31:00,54.5,53.0,29.72,NE,49,0.0,-999.0,93,-99.99,,,0.97,weatherlink.com 1.10,2013-09-15 02:31:00,
2013-09-14 19:46:00,54.4,53.0,29.72,NNE,27,0.0,-999.0,93,-99.99,,,0.97,weatherlink.com 1.10,2013-09-15 02:46:00,
2013-09-14 20:01:00,54.3,52.0,29.72,ENE,69,0.0,-999.0,93,-99.99,,,0.97,weatherlink.com 1.10,2013-09-15 03:01:00,
2013-09-14 20:16:00,54.0,52.0,29.74,NE,34,0.0,-999.0,93,-99.99,,,0.97,weatherlink.com 1.10,2013-09-15 03:16:00,
2013-09-14 20:31:00,53.9,52.0,29.74,NE,34,0.0,-999.0,92,-99.99,,,0.97,weatherlink.com 1.10,2013-09-15 03:31:00,
2013-09-14 20:46:00,53.8,52.0,29.74,North,5,2.0,-999.0,93,-99.99,,,0.97,weatherlink.com 1.10,2013-09-15 03:46:00,
2013-09-14 21:01:00,53.8,52.0,29.75,North,5,0.0,-999.0,93,-99.99,,,0.97,weatherlink.com 1.10,2013-09-15 04:01:00,
2013-09-14 21:16:00,53.4,51.0,29.76,North,5,0.0,-999.0,92,-99.99,,,0.97,weatherlink.com 1.10,2013-09-15 04:16:00,
2013-09-14 21:31:00,53.0,51.0,29.76,North,5,0.0,-999.0,92,-99.99,,,0.97,weatherlink.com 1.10,2013-09-15 04:31:00,
2013-09-14 21:46:00,52.7,51.0,29.76,North,5,0.0,-999.0,92,-99.99,,,0.97,weatherlink.com 1.10,2013-09-15 04:46:00,
2013-09-14 22:01:00,52.5,51.0,29.76,North,5,0.0,-999.0,93,-99.99,,,0.97,weatherlink.com 1.10,2013-09-15 05:01:00,
2013-09-14 22:16:00,52.2,50.0,29.76,North,5,0.0,-999.0,93,-99.99,,,0.97,weatherlink.com 1.10,2013-09-15 05:16:00,
2013-09-14 22:31:00,52.1,50.0,29.76,North,5,0.0,-999.0,93,-99.99,,,0.97,weatherlink.com 1.10,2013-09-15 05:31:00,
2013-09-14 22:46:00,51.9,50.0,29.76,North,5,1.0,-999.0,93,-99.99,,,0.98,weatherlink.com 1.10,2013-09-15 05:46:00,
2013-09-14 23:01:00,51.8,50.0,29.76,North,5,0.0,-999.0,93,-99.99,,,0.98,weatherlink.com 1.10,2013-09-15 06:01:00,
2013-09-14 23:16:00,51.8,50.0,29.76,North,5,0.0,-999.0,93,-99.99,,,0.98,weatherlink.com 1.10,2013-09-15 06:16:00,
2013-09-14 23:31:00,51.6,50.0,29.76,ENE,69,0.0,-999.0,93,-99.99,,,0.98,weatherlink.com 1.10,2013-09-15 06:31:00,
2013-09-14 23:46:00,51.6,50.0,29.76,ENE,69,0.0,-999.0,93,-99.99,,,0.98,weatherlink.com 1.10,2013-09-15 06:46:00,